Time;durP1;ratioP1;P1;durP2;ratioP2;P2;SDS_P1;SDS_P2;PMS_P1;PMS_P2;Temp;Humidity;BMP_temperature;BMP_pressure;BME280_temperature;BME280_humidity;BME280_pressure;Samples;Min_cycle;Max_cycle;Signal;HPM_P1;HPM_P2
2023/02/08 00:01:14;;;;;;;27.73;11.98;;;;;;;-3.75;100.00;103616.19;5009882;28;20112;-78
2023/02/08 00:03:39;;;;;;;35.20;14.32;;;;;;;-3.77;100.00;103616.22;4981596;28;20413;-78
2023/02/08 00:06:07;;;;;;;31.05;11.77;;;;;;;-3.77;100.00;103617.88;5009131;28;20038;-78
2023/02/08 00:08:33;;;;;;;29.70;13.32;;;;;;;-3.79;100.00;103607.72;5002693;28;20482;-78
2023/02/08 00:10:59;;;;;;;24.33;11.35;;;;;;;-3.79;100.00;103612.81;4998319;28;20052;-79
2023/02/08 00:13:25;;;;;;;25.65;12.30;;;;;;;-3.80;100.00;103611.13;4993800;28;20060;-78
2023/02/08 00:15:53;;;;;;;27.50;11.80;;;;;;;-3.79;100.00;103609.44;4974305;28;20064;-78
2023/02/08 00:18:19;;;;;;;28.42;13.07;;;;;;;-3.73;99.91;103602.69;4990440;28;20033;-77
2023/02/08 00:20:45;;;;;;;31.85;12.48;;;;;;;-3.70;99.28;103601.00;4992191;28;20044;-77
2023/02/08 00:23:12;;;;;;;33.70;13.00;;;;;;;-3.58;97.77;103606.09;4977445;28;20030;-78
2023/02/08 00:25:38;;;;;;;29.95;12.55;;;;;;;-3.38;95.21;103607.00;4991653;28;20037;-81
2023/02/08 00:28:07;;;;;;;26.55;12.52;;;;;;;-3.47;94.50;103603.59;4990531;28;20069;-78
2023/02/08 00:30:34;;;;;;;26.10;12.52;;;;;;;-3.54;94.99;103595.97;4988253;28;20034;-78
2023/02/08 00:33:00;;;;;;;33.97;13.98;;;;;;;-3.53;94.92;103596.81;4997901;28;20063;-78
2023/02/08 00:35:26;;;;;;;27.55;11.85;;;;;;;-3.57;95.15;103601.03;4988871;28;20052;-77
2023/02/08 00:37:51;;;;;;;28.75;11.80;;;;;;;-3.57;95.87;103597.66;4992740;28;20502;-78
2023/02/08 00:40:17;;;;;;;27.73;12.85;;;;;;;-3.61;95.77;103601.88;4979874;28;20013;-78
2023/02/08 00:42:42;;;;;;;32.17;12.27;;;;;;;-3.66;96.08;103598.47;4989997;28;20473;-77
2023/02/08 00:45:08;;;;;;;26.08;11.85;;;;;;;-3.69;96.19;103601.03;4992416;28;20041;-79
2023/02/08 00:47:33;;;;;;;25.23;11.63;;;;;;;-3.66;96.43;103597.63;4994065;28;20037;-77
2023/02/08 00:49:59;;;;;;;27.08;12.02;;;;;;;-3.61;96.17;103595.97;4994416;28;20044;-79
2023/02/08 00:52:24;;;;;;;26.83;12.20;;;;;;;-3.58;95.19;103598.50;5008209;28;20030;-77
2023/02/08 00:54:50;;;;;;;22.75;12.20;;;;;;;-3.57;94.63;103595.13;4980323;28;20398;-78
2023/02/08 00:57:15;;;;;;;29.98;11.68;;;;;;;-3.33;92.89;103590.09;4986608;28;20080;-78
2023/02/08 00:59:41;;;;;;;22.35;10.95;;;;;;;-3.42;92.11;103589.25;4978319;28;20529;-78
2023/02/08 01:02:08;;;;;;;25.77;11.90;;;;;;;-3.45;91.79;103582.44;4977026;28;20529;-78
2023/02/08 01:04:33;;;;;;;28.33;11.07;;;;;;;-3.37;91.86;103580.78;4995914;28;20045;-78
2023/02/08 01:06:59;;;;;;;27.25;11.50;;;;;;;-3.44;92.00;103574.00;4976169;28;20029;-78
2023/02/08 01:09:24;;;;;;;26.08;11.07;;;;;;;-3.33;91.81;103572.34;4992911;28;20022;-77
2023/02/08 01:11:50;;;;;;;24.98;11.18;;;;;;;-3.15;91.40;103571.47;4997969;28;20387;-78
2023/02/08 01:14:15;;;;;;;27.20;11.68;;;;;;;-3.07;90.32;103571.50;4974426;28;20033;-78
2023/02/08 01:16:41;;;;;;;28.52;11.45;;;;;;;-3.17;90.16;103575.72;5005722;28;20046;-80
2023/02/08 01:19:07;;;;;;;25.05;11.63;;;;;;;-3.21;90.69;103579.09;4991137;28;20042;-78
2023/02/08 01:21:39;;;;;;;24.88;11.35;;;;;;;-3.15;90.99;103570.66;4993800;28;20030;-78
2023/02/08 01:24:05;;;;;;;22.35;11.15;;;;;;;-3.15;90.50;103575.72;4991648;28;20072;-79
2023/02/08 01:26:31;;;;;;;29.38;11.18;;;;;;;-3.25;90.67;103574.03;4993673;28;20041;-78
2023/02/08 01:28:58;;;;;;;26.80;11.10;;;;;;;-3.37;91.14;103574.84;4975187;28;20041;-78
2023/02/08 01:31:30;;;;;;;25.20;11.20;;;;;;;-3.33;91.07;103569.78;4986412;28;20034;-78
2023/02/08 01:33:59;;;;;;;27.05;10.60;;;;;;;-3.20;90.65;103572.31;4989493;28;20108;-79
2023/02/08 01:36:26;;;;;;;24.90;11.30;;;;;;;-3.05;89.00;103574.03;4992060;28;20773;-78
2023/02/08 01:38:52;;;;;;;25.83;11.35;;;;;;;-2.96;88.23;103577.44;4977217;28;20022;-77
2023/02/08 01:41:26;;;;;;;25.55;12.65;;;;;;;-2.90;87.68;103565.56;4990396;28;20402;-79
2023/02/08 01:44:18;;;;;;;27.65;11.82;;;;;;;-3.00;87.62;103565.56;4981276;28;20483;-78
2023/02/08 01:46:47;;;;;;;25.20;10.82;;;;;;;-2.94;87.71;103570.66;4950338;28;20471;-79
2023/02/08 01:49:23;;;;;;;28.23;11.07;;;;;;;-3.06;87.45;103565.56;4992355;28;20068;-78
2023/02/08 01:51:54;;;;;;;25.45;10.30;;;;;;;-3.16;88.25;103563.88;4997469;28;20034;-78
2023/02/08 01:54:25;;;;;;;22.88;10.70;;;;;;;-3.05;87.91;103562.19;5011456;28;20034;-79
2023/02/08 01:56:51;;;;;;;24.20;10.73;;;;;;;-2.96;87.39;103566.41;4997117;28;20052;-78
2023/02/08 01:59:25;;;;;;;27.55;11.20;;;;;;;-2.80;86.40;103557.94;4979257;28;20120;-78
2023/02/08 02:01:53;;;;;;;21.60;10.57;;;;;;;-2.90;86.36;103556.25;4985171;28;20049;-78
2023/02/08 02:04:19;;;;;;;25.42;11.57;;;;;;;-2.85;86.23;103551.16;4989437;28;20030;-79
2023/02/08 02:06:48;;;;;;;28.48;10.65;;;;;;;-2.80;85.89;103555.38;4994194;28;20038;-78
2023/02/08 02:09:25;;;;;;;22.15;10.35;;;;;;;-2.83;85.32;103549.47;4994462;28;20525;-79
2023/02/08 02:11:52;;;;;;;27.90;11.73;;;;;;;-2.84;85.86;103553.72;4994396;28;20046;-78
2023/02/08 02:14:19;;;;;;;23.98;10.48;;;;;;;-2.80;85.84;103554.56;4998351;28;20049;-79
2023/02/08 02:16:45;;;;;;;26.60;10.73;;;;;;;-2.84;85.99;103555.41;4997529;28;20042;-79
2023/02/08 02:19:30;;;;;;;25.63;11.00;;;;;;;-2.90;86.34;103560.47;4998850;28;20049;-78
2023/02/08 02:22:11;;;;;;;28.33;10.13;;;;;;;-3.01;86.47;103560.50;5000540;28;20068;-79
2023/02/08 02:25:09;;;;;;;27.15;10.65;;;;;;;-2.95;86.39;103561.34;4995050;28;20133;-79
2023/02/08 02:27:48;;;;;;;24.85;10.40;;;;;;;-2.90;86.04;103558.81;4989811;28;20038;-79
2023/02/08 02:30:55;;;;;;;25.35;10.93;;;;;;;-2.79;85.23;103546.94;4996016;28;20038;-78
2023/02/08 02:33:43;;;;;;;32.05;10.75;;;;;;;-2.78;86.00;103552.84;5026793;28;20042;-78
2023/02/08 02:36:41;;;;;;;22.35;10.40;;;;;;;-2.78;85.11;103546.06;4979467;28;20119;-79
2023/02/08 02:39:42;;;;;;;25.15;10.73;;;;;;;-2.85;85.09;103552.00;4994179;28;20042;-81
2023/02/08 02:45:36;;;;;;;27.52;10.80;;;;;;;-2.76;84.21;103544.38;4961365;28;20134;-78
2023/02/08 02:48:12;;;;;;;22.48;10.98;;;;;;;-2.89;85.26;103552.03;4996582;28;20034;-79
2023/02/08 02:50:49;;;;;;;24.02;10.38;;;;;;;-3.01;86.48;103543.56;4988207;28;20040;-81
2023/02/08 02:53:32;;;;;;;25.00;12.25;;;;;;;-3.04;86.73;103546.09;4985140;28;20040;-79
2023/02/08 02:56:12;;;;;;;25.27;11.77;;;;;;;-3.08;86.94;103543.56;4996566;28;22802;-79
2023/02/08 02:58:41;;;;;;;23.80;10.18;;;;;;;-3.15;87.57;103541.00;4977063;28;20140;-79
2023/02/08 03:01:06;;;;;;;24.75;10.50;;;;;;;-3.08;87.52;103543.56;5012943;28;20032;-78
2023/02/08 03:03:34;;;;;;;25.75;10.95;;;;;;;-3.05;87.05;103543.56;4997118;28;20399;-79
2023/02/08 03:06:03;;;;;;;22.70;10.25;;;;;;;-3.01;86.88;103533.41;4979888;28;20613;-78
2023/02/08 03:09:18;;;;;;;22.92;10.55;;;;;;;-2.98;86.80;103538.47;4995941;28;20038;-79
2023/02/08 03:11:56;;;;;;;19.92;9.95;;;;;;;-2.90;86.03;103543.56;4916884;28;20052;-78
2023/02/08 03:14:36;;;;;;;20.98;10.63;;;;;;;-2.83;85.33;103542.69;4917070;29;20086;-79
2023/02/08 03:17:11;;;;;;;24.85;10.75;;;;;;;-2.86;85.76;103530.00;4968335;28;20050;-78
2023/02/08 03:20:03;;;;;;;24.17;11.02;;;;;;;-2.86;85.95;103547.78;4998458;28;20048;-79
2023/02/08 03:22:51;;;;;;;25.33;10.97;;;;;;;-2.88;85.00;103539.34;4996474;28;20553;-80
2023/02/08 03:25:22;;;;;;;20.33;9.95;;;;;;;-2.84;84.88;103537.63;4993252;28;20505;-79
2023/02/08 03:27:59;;;;;;;21.20;9.68;;;;;;;-2.87;85.24;103538.47;4998034;28;20034;-78
2023/02/08 03:30:48;;;;;;;23.80;10.05;;;;;;;-2.86;85.29;103541.84;4994370;28;20113;-78
2023/02/08 03:33:28;;;;;;;22.70;10.65;;;;;;;-2.71;84.40;103543.50;4994375;28;20042;-78
2023/02/08 03:36:03;;;;;;;23.70;10.52;;;;;;;-2.80;84.45;103542.69;5006113;28;20406;-79
2023/02/08 03:38:35;;;;;;;26.73;10.52;;;;;;;-2.72;84.22;103544.38;4982195;28;20117;-80
2023/02/08 03:41:05;;;;;;;23.27;9.20;;;;;;;-2.68;84.17;103548.59;4997835;28;20098;-78
2023/02/08 03:43:43;;;;;;;21.00;9.48;;;;;;;-2.73;84.62;103556.25;4994262;28;20041;-78
2023/02/08 03:46:27;;;;;;;23.83;11.20;;;;;;;-2.81;84.73;103550.31;5006799;28;20041;-79
2023/02/08 03:49:01;;;;;;;24.38;11.00;;;;;;;-2.94;85.18;103555.41;4999190;28;20121;-78
2023/02/08 03:51:29;;;;;;;20.75;10.05;;;;;;;-3.02;85.84;103551.19;4999614;28;20049;-80
2023/02/08 03:53:57;;;;;;;23.13;10.55;;;;;;;-2.99;86.30;103549.50;4983510;28;20034;-79
2023/02/08 03:56:44;;;;;;;27.73;11.00;;;;;;;-2.98;86.47;103552.88;4996186;28;20116;-78
2023/02/08 03:59:16;;;;;;;23.90;10.43;;;;;;;-3.00;86.57;103545.25;4975784;28;20041;-79
2023/02/08 04:01:49;;;;;;;23.27;10.65;;;;;;;-3.13;87.18;103543.56;4997914;28;20053;-80
2023/02/08 04:04:19;;;;;;;22.63;10.10;;;;;;;-3.01;87.49;103548.66;4994886;28;20044;-80
2023/02/08 04:06:44;;;;;;;24.45;10.65;;;;;;;-2.99;87.02;103546.94;4977191;28;20516;-79
2023/02/08 04:09:10;;;;;;;25.05;10.15;;;;;;;-3.06;86.90;103550.34;4981198;28;20034;-79
2023/02/08 04:11:35;;;;;;;28.10;11.10;;;;;;;-3.10;87.19;103552.88;4994408;28;20042;-79
2023/02/08 04:14:01;;;;;;;22.10;10.60;;;;;;;-3.10;87.39;103555.44;4982029;28;20038;-78
2023/02/08 04:16:26;;;;;;;25.00;11.27;;;;;;;-3.11;87.11;103554.56;4993490;28;20045;-80
2023/02/08 04:18:52;;;;;;;24.08;11.77;;;;;;;-3.11;87.31;103553.72;4980891;28;20034;-78
2023/02/08 04:21:17;;;;;;;29.08;11.63;;;;;;;-3.12;87.61;103557.97;4994866;28;20045;-79
2023/02/08 04:23:43;;;;;;;27.75;11.27;;;;;;;-3.07;87.72;103555.41;5000385;28;20038;-79
2023/02/08 04:26:10;;;;;;;26.58;11.38;;;;;;;-2.98;87.16;103556.25;4994062;28;20039;-79
2023/02/08 04:28:36;;;;;;;23.92;11.18;;;;;;;-3.08;87.46;103557.09;4975091;28;20537;-80
2023/02/08 04:31:01;;;;;;;27.52;10.95;;;;;;;-3.09;87.61;103559.63;4993852;28;20030;-79
2023/02/08 04:33:27;;;;;;;21.85;10.40;;;;;;;-3.02;87.23;103551.19;4995879;28;20124;-81
2023/02/08 04:35:53;;;;;;;26.02;11.05;;;;;;;-2.99;86.95;103561.34;4993288;28;20042;-79
2023/02/08 04:38:18;;;;;;;21.85;10.32;;;;;;;-3.06;87.22;103557.13;4994908;28;20061;-79
2023/02/08 04:40:44;;;;;;;23.00;10.43;;;;;;;-3.02;87.68;103563.88;4996636;28;20081;-79
2023/02/08 04:43:09;;;;;;;23.00;10.90;;;;;;;-2.96;87.42;103561.31;4979729;28;20018;-79
2023/02/08 04:45:34;;;;;;;25.65;11.00;;;;;;;-3.12;87.61;103565.56;5011711;28;20289;-79
2023/02/08 04:48:00;;;;;;;24.50;10.90;;;;;;;-3.18;87.80;103563.88;4990772;28;20041;-79
2023/02/08 04:50:26;;;;;;;25.48;12.10;;;;;;;-3.28;88.44;103558.78;4991519;28;20065;-80
2023/02/08 04:52:51;;;;;;;25.65;11.80;;;;;;;-3.37;88.85;103559.63;4994309;28;20414;-80
2023/02/08 04:55:17;;;;;;;24.50;12.13;;;;;;;-3.43;89.78;103559.63;4978718;28;20025;-80
2023/02/08 04:57:42;;;;;;;27.17;11.07;;;;;;;-3.41;89.81;103560.47;4994366;28;20057;-79
2023/02/08 05:00:08;;;;;;;24.80;10.93;;;;;;;-3.48;89.99;103561.28;4979740;28;20030;-80
2023/02/08 05:02:34;;;;;;;31.60;12.38;;;;;;;-3.47;90.20;103566.38;4992679;28;20045;-80
2023/02/08 05:04:59;;;;;;;25.83;11.00;;;;;;;-3.31;89.93;103562.19;4999239;28;20037;-80
2023/02/08 05:07:25;;;;;;;28.40;11.23;;;;;;;-3.23;89.19;103560.50;4996912;28;20053;-79
2023/02/08 05:09:52;;;;;;;29.15;11.25;;;;;;;-3.38;89.19;103558.78;4986816;28;20038;-80
2023/02/08 05:12:18;;;;;;;24.63;10.57;;;;;;;-3.28;88.99;103558.78;4995187;28;20029;-81
2023/02/08 05:14:44;;;;;;;25.40;11.55;;;;;;;-3.19;88.25;103558.81;4981768;28;20038;-79
2023/02/08 05:17:10;;;;;;;24.20;11.70;;;;;;;-3.25;88.55;103558.81;4988431;28;20034;-79
2023/02/08 05:19:35;;;;;;;26.05;11.18;;;;;;;-3.29;88.47;103550.34;4993972;28;20037;-80
2023/02/08 05:22:00;;;;;;;23.80;10.98;;;;;;;-3.32;88.69;103551.16;4994829;28;20084;-79
2023/02/08 05:24:26;;;;;;;26.50;11.40;;;;;;;-3.25;88.61;103551.19;4996069;28;20026;-79
2023/02/08 05:26:51;;;;;;;24.67;10.73;;;;;;;-3.29;88.29;103557.13;4979770;28;20038;-79
2023/02/08 05:29:17;;;;;;;27.48;11.50;;;;;;;-3.36;88.80;103554.56;4994580;28;20045;-81
2023/02/08 05:31:42;;;;;;;21.52;11.10;;;;;;;-3.31;88.44;103549.50;4977929;28;20037;-79
2023/02/08 05:34:08;;;;;;;27.75;10.52;;;;;;;-3.31;88.50;103546.97;4994895;28;20034;-79
2023/02/08 05:36:33;;;;;;;24.85;11.10;;;;;;;-3.34;88.10;103552.84;4977497;28;20065;-80
2023/02/08 05:38:59;;;;;;;25.70;10.65;;;;;;;-3.44;88.98;103553.72;4993188;28;20038;-80
2023/02/08 05:41:24;;;;;;;26.17;11.07;;;;;;;-3.50;89.09;103552.84;4995130;28;20038;-79
2023/02/08 05:43:50;;;;;;;22.85;10.40;;;;;;;-3.38;89.20;103550.34;4979924;28;20026;-81
2023/02/08 05:46:15;;;;;;;23.88;11.45;;;;;;;-3.44;88.89;103558.78;5012709;28;20048;-79
2023/02/08 05:48:41;;;;;;;25.27;10.93;;;;;;;-3.48;89.48;103552.03;5004654;28;20040;-80
2023/02/08 05:51:06;;;;;;;25.52;10.45;;;;;;;-3.49;89.74;103549.47;4996999;28;20398;-80
2023/02/08 05:53:35;;;;;;;23.73;11.20;;;;;;;-3.46;89.34;103555.41;4999642;28;20030;-79
2023/02/08 05:56:01;;;;;;;30.63;11.63;;;;;;;-3.51;89.83;103552.00;4999792;28;20066;-80
2023/02/08 05:58:27;;;;;;;23.10;10.38;;;;;;;-3.52;89.44;103556.25;5001107;28;20034;-81
2023/02/08 06:00:52;;;;;;;25.30;11.07;;;;;;;-3.61;90.25;103561.28;4998582;28;20048;-80
2023/02/08 06:03:18;;;;;;;25.98;10.95;;;;;;;-3.50;89.73;103558.78;5001081;28;20062;-81
2023/02/08 06:05:44;;;;;;;28.60;11.43;;;;;;;-3.55;89.51;103555.38;4998904;28;20121;-79
2023/02/08 06:08:09;;;;;;;22.55;11.43;;;;;;;-3.56;89.40;103552.00;5006564;28;20095;-79
2023/02/08 06:10:36;;;;;;;22.70;10.43;;;;;;;-3.69;89.76;103559.56;5002623;28;20045;-79
2023/02/08 06:13:02;;;;;;;27.50;11.18;;;;;;;-3.64;90.20;103562.97;4984471;28;20117;-79
2023/02/08 06:15:27;;;;;;;28.70;11.43;;;;;;;-3.75;90.58;103566.34;4999617;28;20061;-79
2023/02/08 06:17:53;;;;;;;25.35;11.80;;;;;;;-3.84;91.54;103567.97;4997549;28;20041;-80
2023/02/08 06:20:18;;;;;;;23.25;11.35;;;;;;;-3.92;91.85;103570.50;4988613;28;20026;-80
2023/02/08 06:22:44;;;;;;;23.98;10.90;;;;;;;-4.00;92.42;103564.56;5000722;28;20065;-79
2023/02/08 06:25:09;;;;;;;22.38;10.57;;;;;;;-4.05;93.03;103568.75;4983290;28;20562;-80
2023/02/08 06:27:35;;;;;;;23.20;10.52;;;;;;;-4.12;93.45;103566.19;4993638;28;20046;-80
2023/02/08 06:30:00;;;;;;;22.00;10.43;;;;;;;-4.18;93.93;103566.19;4999691;28;20034;-80
2023/02/08 06:32:26;;;;;;;23.02;10.57;;;;;;;-4.23;93.96;103570.38;4998172;28;20173;-80
2023/02/08 06:34:51;;;;;;;25.63;11.20;;;;;;;-4.26;94.35;103574.56;4996477;28;20285;-80
2023/02/08 06:37:17;;;;;;;25.35;10.65;;;;;;;-4.20;94.47;103567.88;4996733;28;20034;-78
2023/02/08 06:39:43;;;;;;;22.02;10.43;;;;;;;-4.25;95.04;103561.91;5012453;28;20033;-78
2023/02/08 06:42:08;;;;;;;26.20;11.77;;;;;;;-4.10;95.21;103568.75;5004830;28;20109;-77
2023/02/08 06:44:34;;;;;;;31.67;11.82;;;;;;;-4.12;94.41;103561.13;4998047;28;20576;-78
2023/02/08 06:46:59;;;;;;;31.48;11.57;;;;;;;-4.14;94.13;103556.91;5010694;28;20038;-78
2023/02/08 06:49:25;;;;;;;29.90;11.50;;;;;;;-3.97;93.37;103557.81;4981255;28;20033;-79
2023/02/08 06:51:50;;;;;;;30.55;11.65;;;;;;;-3.89;92.57;103559.53;4998628;28;20041;-78
2023/02/08 06:54:16;;;;;;;26.77;11.93;;;;;;;-3.86;91.76;103555.31;4975673;28;20029;-78
2023/02/08 06:56:42;;;;;;;24.83;10.73;;;;;;;-3.79;90.89;103553.63;5014792;28;20116;-78
2023/02/08 06:59:07;;;;;;;29.17;12.60;;;;;;;-3.80;90.82;103551.97;4994824;28;20052;-79
2023/02/08 07:01:33;;;;;;;22.13;11.30;;;;;;;-3.75;89.89;103551.13;4995710;28;20057;-78
2023/02/08 07:03:58;;;;;;;25.27;10.80;;;;;;;-3.76;90.37;103548.56;4994411;28;20041;-79
2023/02/08 07:06:24;;;;;;;25.20;10.75;;;;;;;-3.73;90.06;103549.44;5013127;28;20041;-78
2023/02/08 07:08:49;;;;;;;23.25;9.88;;;;;;;-3.63;89.52;103547.75;5005786;28;20429;-79
2023/02/08 07:11:17;;;;;;;25.40;10.73;;;;;;;-3.49;88.11;103550.31;4975822;28;20042;-79
2023/02/08 07:13:47;;;;;;;25.23;11.13;;;;;;;-3.47;87.48;103552.84;4994628;28;20061;-79
2023/02/08 07:16:12;;;;;;;24.90;11.63;;;;;;;-3.43;87.66;103549.47;4994469;28;20038;-79
2023/02/08 07:18:38;;;;;;;24.40;10.32;;;;;;;-3.45;87.27;103544.38;4996563;28;20045;-80
2023/02/08 07:21:04;;;;;;;29.50;11.40;;;;;;;-3.39;86.96;103544.41;5011598;28;20062;-80
2023/02/08 07:23:29;;;;;;;27.02;10.88;;;;;;;-3.29;86.09;103557.13;4996919;28;20363;-79
2023/02/08 07:26:03;;;;;;;31.13;11.23;;;;;;;-3.13;85.25;103549.50;4993264;28;20046;-79
2023/02/08 07:28:29;;;;;;;22.20;10.27;;;;;;;-3.16;84.83;103553.72;4995255;28;20101;-79
2023/02/08 07:30:57;;;;;;;29.85;11.43;;;;;;;-3.11;85.36;103551.19;4994759;28;20097;-79
2023/02/08 07:33:22;;;;;;;19.85;9.85;;;;;;;-2.99;84.65;103548.66;4981065;28;20060;-80
2023/02/08 07:35:48;;;;;;;21.40;10.32;;;;;;;-2.98;84.27;103546.09;4995062;28;20030;-80
2023/02/08 07:38:14;;;;;;;20.25;10.52;;;;;;;-2.99;84.13;103544.41;4980043;28;20026;-80
2023/02/08 07:40:39;;;;;;;29.42;11.15;;;;;;;-2.92;84.12;103546.94;5011015;28;20029;-79
2023/02/08 07:43:05;;;;;;;21.80;10.20;;;;;;;-2.90;84.55;103540.16;4994531;28;20062;-80
2023/02/08 07:45:40;;;;;;;24.40;9.95;;;;;;;-2.94;84.60;103537.66;4992427;28;20547;-80
2023/02/08 07:48:05;;;;;;;23.88;10.90;;;;;;;-2.85;84.24;103541.84;4998311;28;20029;-80
2023/02/08 07:50:31;;;;;;;22.50;9.75;;;;;;;-2.85;83.59;103541.00;4992788;28;20034;-80
2023/02/08 07:52:57;;;;;;;22.80;11.18;;;;;;;-2.84;84.30;103535.09;4979002;28;20053;-80
2023/02/08 07:55:22;;;;;;;29.52;10.98;;;;;;;-2.83;84.55;103547.75;4996616;28;20035;-81
2023/02/08 07:57:49;;;;;;;25.33;11.13;;;;;;;-2.79;84.39;103539.31;4996238;28;20056;-81
2023/02/08 08:00:17;;;;;;;26.00;10.80;;;;;;;-2.67;83.76;103540.97;4991925;28;20399;-81
2023/02/08 08:02:42;;;;;;;38.08;14.77;;;;;;;-2.55;82.57;103532.47;4996884;28;20482;-81
2023/02/08 08:05:09;;;;;;;27.02;11.93;;;;;;;-2.48;82.44;103540.94;5026315;28;20112;-81
2023/02/08 08:07:34;;;;;;;24.48;10.95;;;;;;;-2.44;81.63;103537.53;4991871;28;20494;-81
2023/02/08 08:10:00;;;;;;;24.73;11.65;;;;;;;-2.41;81.72;103537.50;4996472;28;20129;-81
2023/02/08 08:12:26;;;;;;;23.98;10.35;;;;;;;-2.33;81.67;103543.44;4999346;28;20100;-81
2023/02/08 08:14:51;;;;;;;25.95;10.88;;;;;;;-2.29;81.13;103542.56;5000462;28;20034;-80
2023/02/08 08:17:17;;;;;;;25.65;11.07;;;;;;;-2.26;80.20;103540.00;4994999;28;20030;-81
2023/02/08 08:19:43;;;;;;;22.10;9.73;;;;;;;-2.20;80.62;103542.53;5014406;28;20603;-81
2023/02/08 08:22:09;;;;;;;28.67;9.43;;;;;;;-2.13;79.93;103538.25;4982746;28;20069;-80
2023/02/08 08:24:34;;;;;;;24.67;11.40;;;;;;;-2.02;78.90;103536.50;4985855;28;20029;-80
2023/02/08 08:27:04;;;;;;;24.05;10.82;;;;;;;-2.08;80.02;103540.78;5000222;28;20499;-80
2023/02/08 08:29:34;;;;;;;24.70;10.02;;;;;;;-1.92;78.84;103534.78;4996142;28;20022;-81
2023/02/08 08:32:00;;;;;;;26.40;10.15;;;;;;;-1.87;78.38;103533.03;4979342;28;20464;-80
2023/02/08 08:34:28;;;;;;;27.23;11.77;;;;;;;-1.54;76.21;103533.69;4995577;28;20033;-81
2023/02/08 08:36:58;;;;;;;21.02;9.48;;;;;;;-1.21;75.23;103534.28;4960671;28;20120;-81
2023/02/08 08:39:24;;;;;;;28.10;10.38;;;;;;;-0.84;73.51;103529.69;5001509;28;20073;-82
2023/02/08 08:41:49;;;;;;;22.50;8.82;;;;;;;-0.49;71.55;103517.41;5006817;28;20042;-81
2023/02/08 08:44:15;;;;;;;19.73;8.93;;;;;;;-0.08;69.77;103521.16;5013825;28;20084;-81
2023/02/08 08:46:40;;;;;;;23.98;9.15;;;;;;;0.28;68.12;103514.69;4975954;28;20402;-81
2023/02/08 08:49:06;;;;;;;17.58;7.88;;;;;;;0.43;66.71;103503.41;4999363;28;20033;-80
2023/02/08 08:51:34;;;;;;;20.67;8.40;;;;;;;0.41;64.84;103494.09;4993180;28;20506;-80
2023/02/08 08:54:06;;;;;;;23.70;8.73;;;;;;;0.61;65.42;103507.41;4975724;28;20042;-80
2023/02/08 08:56:32;;;;;;;22.17;8.57;;;;;;;0.76;64.63;103502.03;4992304;28;20046;-80
2023/02/08 08:58:58;;;;;;;19.05;8.07;;;;;;;1.25;63.85;103505.41;4992164;28;20073;-81
2023/02/08 09:01:24;;;;;;;19.80;8.55;;;;;;;1.56;61.54;103515.03;4991305;28;20038;-79
2023/02/08 09:03:50;;;;;;;19.80;8.85;;;;;;;1.66;60.89;103506.31;4992781;28;20030;-78
2023/02/08 09:06:15;;;;;;;16.00;7.70;;;;;;;1.68;60.64;103511.41;4990580;28;20035;-81
2023/02/08 09:08:42;;;;;;;17.30;7.82;;;;;;;1.82;60.42;103506.81;4978169;28;20504;-81
2023/02/08 09:11:11;;;;;;;19.85;7.63;;;;;;;1.83;60.16;103498.28;4989698;28;20049;-80
2023/02/08 09:13:37;;;;;;;16.52;7.63;;;;;;;1.75;58.70;103506.13;5006700;28;20035;-78
2023/02/08 09:16:05;;;;;;;15.25;6.75;;;;;;;2.12;58.71;103499.34;5003806;28;20910;-79
2023/02/08 09:18:30;;;;;;;21.92;8.10;;;;;;;2.12;57.73;103501.91;4997880;28;20038;-79
2023/02/08 09:20:56;;;;;;;15.32;6.72;;;;;;;1.87;57.70;103509.28;4994310;28;20030;-79
2023/02/08 09:23:21;;;;;;;17.52;7.63;;;;;;;1.64;58.07;103512.31;4979506;28;20375;-78
2023/02/08 09:25:47;;;;;;;15.52;7.30;;;;;;;1.70;58.82;103510.47;4987695;28;20047;-78
2023/02/08 09:28:12;;;;;;;17.15;7.68;;;;;;;1.73;58.29;103510.44;4989680;28;20026;-78
2023/02/08 09:30:38;;;;;;;17.67;7.38;;;;;;;1.42;59.71;103504.25;4996822;28;20039;-79
2023/02/08 09:33:04;;;;;;;14.80;7.28;;;;;;;1.25;58.95;103504.56;4990277;28;20085;-78
2023/02/08 09:35:30;;;;;;;17.70;7.43;;;;;;;1.08;59.59;103500.63;5001756;28;20243;-80
2023/02/08 09:37:56;;;;;;;15.07;7.47;;;;;;;1.02;61.00;103505.84;4989920;28;20035;-78
2023/02/08 09:40:27;;;;;;;15.27;7.28;;;;;;;1.04;61.13;103506.66;4990996;28;20045;-76
2023/02/08 09:43:42;;;;;;;14.98;6.95;;;;;;;1.08;60.59;103507.44;4987309;28;20038;-79
2023/02/08 09:46:17;;;;;;;15.55;7.65;;;;;;;1.03;61.10;103504.97;4976766;28;20038;-78
2023/02/08 09:48:44;;;;;;;21.23;6.95;;;;;;;0.98;61.19;103499.13;5004852;28;20495;-80
2023/02/08 09:51:34;;;;;;;18.13;7.97;;;;;;;1.07;61.01;103505.75;5002759;28;20461;-77
2023/02/08 09:54:18;;;;;;;16.33;7.70;;;;;;;1.02;61.23;103510.09;4989185;28;20068;-77
2023/02/08 09:56:47;;;;;;;14.45;7.45;;;;;;;0.97;61.29;103511.03;5019826;28;20042;-77
2023/02/08 09:59:22;;;;;;;15.35;7.28;;;;;;;1.07;60.32;103510.84;4985521;28;20054;-76
2023/02/08 10:01:50;;;;;;;15.35;8.13;;;;;;;1.00;60.75;103504.16;4984485;28;20100;-78
2023/02/08 10:04:34;;;;;;;20.55;8.52;;;;;;;1.12;60.46;103512.47;4987846;28;20030;-77
2023/02/08 10:07:00;;;;;;;17.92;6.80;;;;;;;1.19;60.50;103510.66;4990239;28;20042;-76
2023/02/08 10:09:26;;;;;;;25.52;9.38;;;;;;;1.13;60.56;103521.84;5023327;28;20034;-77
2023/02/08 10:12:08;;;;;;;16.40;8.00;;;;;;;1.16;59.36;103514.09;4987201;28;20045;-76
2023/02/08 10:14:50;;;;;;;15.80;7.15;;;;;;;1.23;59.90;103525.06;4991509;28;20072;-76
2023/02/08 10:17:42;;;;;;;17.02;7.20;;;;;;;1.31;59.28;103527.47;4990918;28;20045;-76
2023/02/08 10:20:35;;;;;;;17.77;7.72;;;;;;;1.16;59.58;103526.03;4997644;28;20041;-76
2023/02/08 10:23:22;;;;;;;15.85;7.43;;;;;;;1.23;59.04;103531.88;4986012;28;20427;-79
2023/02/08 10:26:25;;;;;;;18.25;7.18;;;;;;;1.22;57.34;103520.78;5019033;28;20061;-76
2023/02/08 10:29:20;;;;;;;16.33;8.20;;;;;;;1.19;58.87;103528.53;5001678;28;20034;-76
2023/02/08 10:32:34;;;;;;;15.73;6.90;;;;;;;1.39;57.39;103517.91;5019215;28;20042;-77
2023/02/08 10:35:13;;;;;;;16.77;7.60;;;;;;;1.36;58.54;103513.72;4984860;28;20104;-76
2023/02/08 10:37:42;;;;;;;16.95;7.05;;;;;;;1.45;57.76;103522.94;5004771;28;20078;-78
2023/02/08 10:40:35;;;;;;;15.15;7.22;;;;;;;1.55;57.42;103518.47;5007656;28;20566;-76
2023/02/08 10:43:35;;;;;;;17.40;7.57;;;;;;;1.54;58.54;103512.53;4994663;28;20581;-76
2023/02/08 10:46:40;;;;;;;16.77;8.25;;;;;;;1.60;58.43;103509.00;4956065;28;20518;-76
2023/02/08 10:49:24;;;;;;;15.82;7.65;;;;;;;1.77;58.46;103503.50;4991132;28;20060;-76
2023/02/08 10:51:49;;;;;;;22.92;8.23;;;;;;;1.85;57.81;103500.81;5020096;28;20129;-77
2023/02/08 10:54:16;;;;;;;19.42;7.63;;;;;;;1.88;58.03;103500.72;4994984;28;20945;-79
2023/02/08 10:56:59;;;;;;;19.83;8.68;;;;;;;1.82;58.86;103499.13;4987860;28;20066;-77
2023/02/08 10:59:27;;;;;;;;;;;;;;;1.78;59.72;103500.09;4988702;28;20735;-77
2023/02/08 11:01:54;;;;;;;18.65;8.45;;;;;;;1.69;60.61;103497.72;5001531;28;19944;-77
2023/02/08 11:04:19;;;;;;;19.00;7.43;;;;;;;1.78;59.81;103501.81;5007049;28;20038;-77
2023/02/08 11:06:47;;;;;;;15.23;6.93;;;;;;;1.75;58.88;103493.31;4975638;28;20038;-76
2023/02/08 11:09:23;;;;;;;23.13;6.97;;;;;;;1.74;58.80;103496.75;4990176;28;20026;-79
2023/02/08 11:11:51;;;;;;;18.90;7.18;;;;;;;2.01;56.85;103486.78;4990442;28;20216;-78
2023/02/08 11:14:22;;;;;;;20.00;7.22;;;;;;;2.03;56.95;103491.88;4988028;28;20039;-77
2023/02/08 11:16:52;;;;;;;15.32;7.18;;;;;;;1.94;57.25;103491.22;5019546;28;20034;-77
2023/02/08 11:19:31;;;;;;;15.02;6.88;;;;;;;2.09;55.34;103486.59;4990685;28;20038;-78
2023/02/08 11:21:58;;;;;;;14.38;5.97;;;;;;;2.26;54.12;103481.94;4987090;28;20125;-76
2023/02/08 11:24:30;;;;;;;14.95;6.40;;;;;;;2.22;53.51;103484.59;4988144;28;20129;-77
2023/02/08 11:26:55;;;;;;;14.23;6.32;;;;;;;2.10;54.15;103481.44;4990433;28;20039;-78
2023/02/08 11:29:29;;;;;;;15.38;6.80;;;;;;;2.03;55.36;103476.50;4990416;28;20392;-76
2023/02/08 11:31:58;;;;;;;13.35;6.10;;;;;;;2.22;53.61;103480.31;5005423;28;20033;-76